createdAt,value
2023-01-08T00:01:23.419Z,-10.00
2023-01-08T00:03:51.296Z,-10.00
2023-01-08T00:06:21.386Z,-10.00
2023-01-08T00:08:49.046Z,-10.00
2023-01-08T00:13:44.370Z,-9.90
2023-01-08T00:16:16.988Z,-10.00
2023-01-08T00:18:45.490Z,-10.00
2023-01-08T00:21:17.081Z,-10.00
2023-01-08T00:26:12.964Z,-10.00
2023-01-08T00:28:41.081Z,-10.00
2023-01-08T00:31:15.492Z,-9.90
2023-01-08T00:33:43.308Z,-9.90
2023-01-08T00:38:43.775Z,-9.90
2023-01-08T00:43:41.422Z,-9.90
2023-01-08T00:51:08.992Z,-9.90
2023-01-08T00:53:38.244Z,-9.90
2023-01-08T00:56:08.326Z,-9.90
2023-01-08T01:01:09.311Z,-9.80
2023-01-08T01:03:36.949Z,-9.80
2023-01-08T01:06:06.158Z,-9.80
2023-01-08T01:08:34.946Z,-9.90
2023-01-08T01:11:07.997Z,-9.80
2023-01-08T01:13:35.747Z,-9.70
2023-01-08T01:16:03.956Z,-9.80
2023-01-08T01:18:31.944Z,-9.80
2023-01-08T01:20:59.541Z,-9.80
2023-01-08T01:23:30.829Z,-9.80
2023-01-08T01:28:26.240Z,-9.90
2023-01-08T01:30:57.336Z,-9.80
2023-01-08T01:36:01.199Z,-9.70
2023-01-08T01:38:29.083Z,-9.80
2023-01-08T01:40:56.725Z,-9.80
2023-01-08T01:43:54.507Z,-9.70
2023-01-08T01:46:32.160Z,-9.70
2023-01-08T01:49:03.297Z,-9.70
2023-01-08T01:51:34.285Z,-9.70
2023-01-08T01:54:08.408Z,-9.70
2023-01-08T01:56:35.920Z,-9.60
2023-01-08T02:01:33.040Z,-9.60
2023-01-08T02:06:38.296Z,-9.60
2023-01-08T02:09:26.101Z,-9.60
2023-01-08T02:12:18.492Z,-9.60
2023-01-08T02:17:39.987Z,-9.60
2023-01-08T02:20:12.517Z,-9.50
2023-01-08T02:22:54.106Z,-9.60
2023-01-08T02:25:45.932Z,-9.60
2023-01-08T02:28:14.925Z,-9.60
2023-01-08T02:30:44.004Z,-9.70
2023-01-08T02:33:12.641Z,-9.50
2023-01-08T02:35:49.130Z,-9.80
2023-01-08T02:38:18.267Z,-9.50
2023-01-08T02:40:59.210Z,-9.50
2023-01-08T02:43:52.752Z,-9.50
2023-01-08T02:46:25.875Z,-9.80
2023-01-08T02:49:09.682Z,-9.40
2023-01-08T02:51:57.974Z,-9.40
2023-01-08T02:54:29.893Z,-9.40
2023-01-08T02:57:14.059Z,-9.40
2023-01-08T02:59:43.814Z,-9.40
2023-01-08T03:02:12.165Z,-9.40
2023-01-08T03:04:47.102Z,-9.40
2023-01-08T03:07:14.678Z,-9.40
2023-01-08T03:09:42.130Z,-9.40
2023-01-08T03:13:07.560Z,-9.50
2023-01-08T03:18:16.601Z,-9.30
2023-01-08T03:20:45.894Z,-9.30
2023-01-08T03:23:15.067Z,-9.30
2023-01-08T03:25:45.208Z,-9.30
2023-01-08T03:28:30.613Z,-9.30
2023-01-08T03:30:59.404Z,-9.30
2023-01-08T03:33:31.197Z,-9.30
2023-01-08T03:36:01.116Z,-9.30
2023-01-08T03:38:33.353Z,-9.30
2023-01-08T03:41:13.868Z,-9.20
2023-01-08T03:46:19.787Z,-9.20
2023-01-08T03:53:43.969Z,-9.20
2023-01-08T03:56:11.328Z,-9.20
2023-01-08T04:01:06.695Z,-8.90
2023-01-08T04:03:34.421Z,-9.20
2023-01-08T04:10:57.587Z,-9.20
2023-01-08T04:18:20.318Z,-9.20
2023-01-08T04:20:48.730Z,-9.20
2023-01-08T04:30:40.022Z,-9.20
2023-01-08T04:35:36.468Z,-9.20
2023-01-08T04:38:04.371Z,-9.10
2023-01-08T04:40:33.774Z,-9.10
2023-01-08T04:47:57.798Z,-9.00
2023-01-08T04:50:26.380Z,-9.00
2023-01-08T04:55:24.151Z,-8.80
2023-01-08T04:57:51.739Z,-9.00
2023-01-08T05:02:47.164Z,-9.00
2023-01-08T05:05:14.769Z,-9.10
2023-01-08T05:07:42.273Z,-9.00
2023-01-08T05:10:10.509Z,-9.00
2023-01-08T05:12:38.226Z,-9.00
2023-01-08T05:20:01.369Z,-8.90
2023-01-08T05:24:56.775Z,-8.90
2023-01-08T05:32:22.809Z,-8.90
2023-01-08T05:37:23.590Z,-8.90
2023-01-08T05:44:46.385Z,-9.00
2023-01-08T05:47:13.789Z,-8.90
2023-01-08T05:49:41.586Z,-8.90
2023-01-08T05:52:09.306Z,-8.90
2023-01-08T05:59:34.098Z,-8.90
2023-01-08T06:02:01.631Z,-8.90
2023-01-08T06:04:29.455Z,-8.90
2023-01-08T06:14:22.530Z,-8.90
2023-01-08T06:16:49.996Z,-8.80
2023-01-08T06:19:19.119Z,-8.80
2023-01-08T06:26:44.234Z,-8.80
2023-01-08T06:29:11.832Z,-8.90
2023-01-08T06:31:40.682Z,-8.80
2023-01-08T06:34:08.493Z,-8.90
2023-01-08T06:36:36.337Z,-8.80
2023-01-08T06:39:07.173Z,-8.90
2023-01-08T06:41:34.715Z,-8.70
2023-01-08T06:44:02.483Z,-8.70
2023-01-08T06:46:32.412Z,-8.70
2023-01-08T06:51:28.777Z,-8.70
2023-01-08T06:53:56.491Z,-9.00
2023-01-08T07:01:19.450Z,-8.60
2023-01-08T07:03:46.989Z,-8.40
2023-01-08T07:06:21.768Z,-8.50
2023-01-08T07:08:49.410Z,-8.60
2023-01-08T07:11:17.575Z,-8.60
2023-01-08T07:16:14.969Z,-8.60
2023-01-08T07:18:43.011Z,-8.50
2023-01-08T07:23:38.491Z,-8.60
2023-01-08T07:26:09.030Z,-8.40
2023-01-08T07:53:18.413Z,-7.90
2023-01-08T07:58:15.784Z,-8.10
2023-01-08T08:00:43.227Z,-8.10
2023-01-08T08:03:12.138Z,-8.00
2023-01-08T08:05:39.715Z,-8.00
2023-01-08T08:10:40.000Z,-7.90
2023-01-08T08:15:36.307Z,-7.90
2023-01-08T08:18:04.085Z,-7.90
2023-01-08T08:23:05.029Z,-7.80
2023-01-08T08:25:32.560Z,-7.80
2023-01-08T08:28:02.065Z,-7.80
2023-01-08T08:30:33.957Z,-7.70
2023-01-08T08:33:03.689Z,-7.70
2023-01-08T08:35:32.545Z,-7.70
2023-01-08T08:38:00.858Z,-7.60
2023-01-08T08:42:57.679Z,-7.60
2023-01-08T08:45:25.692Z,-7.60
2023-01-08T08:47:53.571Z,-7.90
2023-01-08T08:50:21.367Z,-7.50
2023-01-08T08:52:49.403Z,-7.50
2023-01-08T08:55:18.014Z,-7.40
2023-01-08T08:57:46.745Z,-7.30
2023-01-08T09:02:42.872Z,-7.40
2023-01-08T09:05:11.187Z,-7.30
2023-01-08T09:10:07.069Z,-7.40
2023-01-08T09:12:34.646Z,-7.30
2023-01-08T09:20:01.708Z,-7.20
2023-01-08T09:25:00.952Z,-7.10
2023-01-08T09:27:28.486Z,-7.10
2023-01-08T09:29:59.999Z,-7.10
2023-01-08T09:40:01.733Z,-7.10
2023-01-08T09:42:31.118Z,-6.90
2023-01-08T09:45:01.174Z,-6.90
2023-01-08T09:50:02.932Z,-6.90
2023-01-08T09:52:32.076Z,-6.90
2023-01-08T09:57:29.284Z,-6.90
2023-01-08T09:59:58.879Z,-6.80
2023-01-08T10:12:31.764Z,-6.60
2023-01-08T10:15:14.167Z,-6.80
2023-01-08T10:18:06.019Z,-6.80
2023-01-08T10:20:34.391Z,-6.80
2023-01-08T10:23:16.188Z,-6.80
2023-01-08T10:25:56.750Z,-6.70
2023-01-08T10:33:30.898Z,-6.60
2023-01-08T10:36:03.999Z,-6.60
2023-01-08T10:38:34.219Z,-6.60
2023-01-08T10:41:06.124Z,-6.60
2023-01-08T10:43:45.441Z,-6.60
2023-01-08T10:46:26.687Z,-6.60
2023-01-08T10:49:00.819Z,-8.20
2023-01-08T10:51:30.867Z,-6.60
2023-01-08T10:54:14.198Z,-6.60
2023-01-08T10:56:45.511Z,-6.60
2023-01-08T10:59:23.666Z,-6.60
2023-01-08T11:17:11.883Z,-6.30
2023-01-08T11:35:40.709Z,-6.00
2023-01-08T11:38:12.476Z,-6.00
2023-01-08T11:40:56.555Z,-6.10
2023-01-08T11:43:41.945Z,-6.00
2023-01-08T11:46:43.079Z,-5.80
2023-01-08T11:49:21.593Z,-6.10
2023-01-08T11:51:57.403Z,-6.00
2023-01-08T11:54:35.347Z,-6.00
2023-01-08T11:57:38.044Z,-6.10
2023-01-08T12:00:28.830Z,-6.00
2023-01-08T12:03:02.481Z,-5.90
2023-01-08T13:06:14.075Z,-5.60
2023-01-08T13:08:44.917Z,-5.60
2023-01-08T13:13:45.183Z,-5.70
2023-01-08T13:16:15.705Z,-5.60
2023-01-08T13:19:01.423Z,-5.60
2023-01-08T13:21:54.869Z,-5.50
2023-01-08T13:24:38.881Z,-5.60
2023-01-08T13:27:29.495Z,-5.40
2023-01-08T13:29:59.081Z,-5.50
2023-01-08T13:35:15.887Z,-5.40
2023-01-08T13:47:57.505Z,-5.50
2023-01-08T13:50:26.512Z,-5.40
2023-01-08T13:53:03.929Z,-5.40
2023-01-08T13:58:09.987Z,-5.50
2023-01-08T14:00:50.739Z,-5.40
2023-01-08T14:03:39.228Z,-5.40
2023-01-08T14:08:38.165Z,-5.40
2023-01-08T14:11:06.028Z,-5.50
2023-01-08T14:16:11.768Z,-5.40
2023-01-08T14:23:43.265Z,-5.50
2023-01-08T14:26:32.457Z,-5.30
2023-01-08T14:29:03.544Z,-5.30
2023-01-08T14:31:46.089Z,-5.30
2023-01-08T14:34:14.851Z,-5.30
2023-01-08T14:47:14.434Z,-5.10
2023-01-08T14:49:44.802Z,-5.20
2023-01-08T14:52:15.236Z,-5.20
2023-01-08T14:54:48.352Z,-5.20
2023-01-08T14:59:57.016Z,-5.20
2023-01-08T15:02:38.148Z,-5.20
2023-01-08T15:05:18.013Z,-5.20
2023-01-08T15:07:57.291Z,-5.20
2023-01-08T15:10:36.139Z,-5.20
2023-01-08T15:13:07.614Z,-5.20
2023-01-08T15:15:38.215Z,-5.20
2023-01-08T15:18:08.233Z,-5.20
2023-01-08T16:40:25.414Z,-5.30
2023-01-08T16:47:53.658Z,-5.30
2023-01-08T16:50:23.819Z,-5.40
2023-01-08T16:52:51.535Z,-5.30
2023-01-08T16:55:19.127Z,-5.40
2023-01-08T16:57:48.319Z,-5.40
2023-01-08T17:00:16.043Z,-5.40
2023-01-08T17:02:43.810Z,-5.30
2023-01-08T17:05:13.661Z,-5.30
2023-01-08T17:07:42.780Z,-5.40
2023-01-08T17:22:31.333Z,-5.30
2023-01-08T17:24:59.124Z,-5.30
2023-01-08T17:27:26.973Z,-5.30
2023-01-08T17:32:23.265Z,-5.30
2023-01-08T17:50:05.992Z,-5.30
2023-01-08T17:55:08.306Z,-5.20
2023-01-08T17:57:37.138Z,-5.30
2023-01-08T18:14:53.391Z,-5.20
2023-01-08T18:17:22.215Z,-5.30
2023-01-08T18:19:49.921Z,-5.30
2023-01-08T18:22:17.622Z,-5.30
2023-01-08T19:07:13.271Z,-5.20
2023-01-08T19:09:41.130Z,-5.20
2023-01-08T19:12:10.119Z,-5.20
2023-01-08T19:14:37.785Z,-5.10
2023-01-08T19:19:33.885Z,-5.20
2023-01-08T19:29:27.388Z,-5.20
2023-01-08T19:34:25.987Z,-5.30
2023-01-08T19:36:54.318Z,-5.40
2023-01-08T19:39:22.704Z,-5.30
2023-01-08T19:42:12.313Z,-5.30
2023-01-08T19:44:40.247Z,-5.30
2023-01-08T19:47:08.101Z,-5.30
2023-01-08T19:49:35.501Z,-5.30
2023-01-08T19:52:03.147Z,-5.30
2023-01-08T19:54:30.792Z,-5.40
2023-01-08T21:11:45.862Z,-5.20
2023-01-08T21:14:13.495Z,-5.30
2023-01-08T21:16:41.292Z,-5.20
2023-01-08T21:19:11.805Z,-5.30
2023-01-08T21:21:40.868Z,-5.40
2023-01-08T21:24:11.623Z,-5.30
2023-01-08T21:26:39.371Z,-5.30
2023-01-08T21:31:36.417Z,-5.40
2023-01-08T21:34:06.674Z,-5.40
2023-01-08T21:41:49.392Z,-5.30
2023-01-08T21:44:40.773Z,-5.30
2023-01-08T21:47:12.412Z,-5.30
2023-01-08T21:49:40.521Z,-5.40
2023-01-08T21:52:27.435Z,-5.20
2023-01-08T21:54:56.271Z,-5.40
2023-01-08T21:57:25.507Z,-5.40
2023-01-08T21:59:53.257Z,-5.40
2023-01-08T22:02:23.288Z,-5.40
2023-01-08T22:07:22.041Z,-5.40
2023-01-08T22:09:49.542Z,-5.40
2023-01-08T22:12:17.473Z,-5.40
2023-01-08T22:14:45.427Z,-5.40
2023-01-08T22:17:13.382Z,-5.40
2023-01-08T22:22:10.672Z,-5.20
2023-01-08T22:24:39.338Z,-5.30
2023-01-08T22:27:08.105Z,-5.40
2023-01-08T22:32:04.639Z,-5.40
2023-01-08T22:34:32.727Z,-5.40
2023-01-08T22:37:00.783Z,-4.70
2023-01-08T22:39:28.311Z,-5.40
2023-01-08T22:41:55.893Z,-5.40
2023-01-08T22:44:23.848Z,-4.70
2023-01-08T22:46:51.266Z,-5.20
2023-01-08T22:51:46.955Z,-5.40
2023-01-08T22:54:18.131Z,-5.40
2023-01-08T22:59:13.126Z,-5.40
2023-01-08T23:26:28.119Z,-5.20
2023-01-08T23:28:57.619Z,-5.30
2023-01-08T23:31:27.977Z,-5.40
2023-01-08T23:36:26.029Z,-5.40
2023-01-08T23:38:55.302Z,-5.50
2023-01-08T23:41:33.064Z,-5.30
2023-01-08T23:44:06.979Z,-5.30
2023-01-08T23:46:35.105Z,-5.30
2023-01-08T23:51:31.009Z,-5.30
